LIVD

Details ICAO LIVD
Name Dobbiaco
Region Italy
Timezone Europe/Rome (UTC+1.0)
Plans Departing 7
Arriving 12
Stats Elevation 3,982 ft / 1,214 m (AMSL)
Location 46.726111° 12.224161°
Runways 1
Magnetic Variation 3.199° E
Sunrise 2017-12-11 06:47:10 UTC / 2017-12-11 07:47:10 Local
Sunset 2017-12-11 15:24:26 UTC / 2017-12-11 16:24:26 Local
Advertisement - Login to hide

Runways

ID Width Length Bearing (true) Bearing (mag) Surface Threshold Offset Overrun Length
09 164 ft / 50 m 3,119 ft / 951 m 90.00° 86.80° Dirt 0 ft / 0 m 0 ft / 0 m
27 164 ft / 50 m 3,119 ft / 951 m 270.00° 266.80° Dirt 0 ft / 0 m 0 ft / 0 m

Map

Weather


0- 5 10 15 20 25 30 35+ Temperature / ° C

Clouds and Precipitation
Forecast for 2017-12-11 12:00 UTC. Updated 33 minutes ago

Ground ~20,000 ft ~40,000 ft Winds

METAR

LIVD 111055Z 10006KT 9999 -RA OVC020 03/01 Q0997 RMK OVC VIS MIN 9999

TAF

Not found
Warning: Do not use this data for real-world aviation or navigation. No guarantee of current accuracy is given.